Time;durP1;ratioP1;P1;durP2;ratioP2;P2;SDS_P1;SDS_P2;PMS_P1;PMS_P2;Temp;Humidity;BMP_temperature;BMP_pressure;BME280_temperature;BME280_humidity;BME280_pressure;Samples;Min_cycle;Max_cycle;Signal;HPM_P1;HPM_P2
2022/07/24 00:02:01;;;;;;;10.97;9.50;;;22.90;90.40;;;;;;7370382;19;20704;-46
2022/07/24 00:04:30;;;;;;;11.67;9.40;;;23.00;90.50;;;;;;7382262;19;20523;-47
2022/07/24 00:07:00;;;;;;;10.83;9.20;;;23.20;90.30;;;;;;7377824;19;20368;-47
2022/07/24 00:09:32;;;;;;;11.20;10.10;;;23.30;89.70;;;;;;7361130;19;20412;-50
2022/07/24 00:12:02;;;;;;;9.10;8.20;;;23.10;90.00;;;;;;7381289;19;20419;-50
2022/07/24 00:14:32;;;;;;;10.23;9.23;;;23.00;90.50;;;;;;7390983;19;20953;-50
2022/07/24 00:17:01;;;;;;;9.27;8.27;;;22.80;90.90;;;;;;7385289;19;20376;-51
2022/07/24 00:19:35;;;;;;;11.93;9.00;;;22.80;91.40;;;;;;7382410;19;20367;-50
2022/07/24 00:22:05;;;;;;;9.83;8.83;;;22.80;91.20;;;;;;7381636;19;20383;-50
2022/07/24 00:24:37;;;;;;;10.53;9.53;;;22.70;91.70;;;;;;7376839;19;21048;-51
2022/07/24 00:27:07;;;;;;;12.80;10.57;;;22.60;92.50;;;;;;7381089;19;20929;-50
2022/07/24 00:29:39;;;;;;;11.03;9.93;;;22.60;92.80;;;;;;7379710;19;20376;-50
2022/07/24 00:32:08;;;;;;;9.80;8.90;;;22.60;92.70;;;;;;7375745;19;20364;-50
2022/07/24 00:34:38;;;;;;;10.13;9.03;;;22.70;92.80;;;;;;7379185;19;20950;-50
2022/07/24 00:37:08;;;;;;;11.27;9.17;;;22.70;92.50;;;;;;7381341;19;20364;-50
2022/07/24 00:39:40;;;;;;;11.60;8.97;;;22.60;92.30;;;;;;7375797;19;20966;-51
2022/07/24 00:42:09;;;;;;;10.57;9.47;;;22.60;92.20;;;;;;7351071;19;20767;-50
2022/07/24 00:44:39;;;;;;;10.30;9.40;;;22.90;91.10;;;;;;7358666;19;20372;-50
2022/07/24 00:47:09;;;;;;;10.10;9.00;;;23.10;90.30;;;;;;7376283;19;21085;-50
2022/07/24 00:49:38;;;;;;;9.00;8.10;;;23.30;89.20;;;;;;7358491;19;21203;-50
2022/07/24 00:52:08;;;;;;;9.87;8.90;;;23.50;88.70;;;;;;7367564;19;20942;-50
2022/07/24 00:54:40;;;;;;;9.70;8.70;;;23.60;87.80;;;;;;7359280;19;20413;-50
2022/07/24 00:57:10;;;;;;;10.00;9.00;;;23.70;87.30;;;;;;7364775;19;20378;-50
2022/07/24 00:59:39;;;;;;;11.90;8.40;;;23.50;86.30;;;;;;7359581;19;20439;-50
2022/07/24 01:02:09;;;;;;;10.17;9.03;;;23.10;86.70;;;;;;7363167;19;20388;-50
2022/07/24 01:04:39;;;;;;;9.23;8.33;;;23.20;87.60;;;;;;7360106;19;20395;-50
2022/07/24 01:07:09;;;;;;;9.20;8.10;;;23.10;87.50;;;;;;7358286;19;20391;-50
2022/07/24 01:09:41;;;;;;;8.83;7.93;;;23.10;85.50;;;;;;7363829;19;20409;-50
2022/07/24 01:12:11;;;;;;;8.40;7.53;;;23.10;86.60;;;;;;7365910;19;20800;-50
2022/07/24 01:14:43;;;;;;;8.50;7.70;;;23.00;86.60;;;;;;7366604;19;20380;-50
2022/07/24 01:17:13;;;;;;;8.20;7.50;;;22.90;86.80;;;;;;7359036;19;20399;-47
2022/07/24 01:19:42;;;;;;;8.30;7.40;;;22.80;87.60;;;;;;7360118;19;22980;-47
2022/07/24 01:22:15;;;;;;;10.87;8.87;;;22.70;88.40;;;;;;7340388;19;20409;-47
2022/07/24 01:24:48;;;;;;;8.00;7.20;;;22.60;89.20;;;;;;7352747;19;20385;-46
2022/07/24 01:27:18;;;;;;;9.80;7.97;;;22.60;89.90;;;;;;7359800;19;20954;-46
2022/07/24 01:29:47;;;;;;;8.80;7.70;;;22.50;89.20;;;;;;7359888;19;20425;-46
2022/07/24 01:32:17;;;;;;;8.93;8.03;;;22.40;90.10;;;;;;7360345;19;20416;-46
2022/07/24 01:34:49;;;;;;;10.23;7.80;;;22.50;90.10;;;;;;7356627;19;20409;-46
2022/07/24 01:37:21;;;;;;;10.53;7.70;;;22.60;90.20;;;;;;7362176;19;20387;-47
2022/07/24 01:39:51;;;;;;;9.10;7.37;;;22.80;89.10;;;;;;7367042;19;20949;-46
2022/07/24 01:42:23;;;;;;;9.17;7.87;;;22.80;88.00;;;;;;7362904;19;20364;-46
2022/07/24 01:44:53;;;;;;;8.57;7.67;;;22.70;88.40;;;;;;7355762;19;20380;-47
2022/07/24 01:47:23;;;;;;;9.37;7.77;;;22.60;89.20;;;;;;7361213;19;20384;-47
2022/07/24 01:49:52;;;;;;;8.23;7.43;;;22.40;90.30;;;;;;7344170;19;20761;-50
2022/07/24 01:52:25;;;;;;;7.93;7.23;;;22.50;90.40;;;;;;7357814;19;20369;-50
2022/07/24 01:54:55;;;;;;;9.43;7.67;;;22.60;90.40;;;;;;7369398;19;20507;-50
2022/07/24 01:57:24;;;;;;;8.23;7.33;;;22.60;89.80;;;;;;7369415;19;20376;-49
2022/07/24 01:59:54;;;;;;;9.00;7.57;;;22.50;90.00;;;;;;7372748;19;20780;-50
2022/07/24 02:02:23;;;;;;;10.83;8.17;;;22.30;91.20;;;;;;7369700;19;20993;-50
2022/07/24 02:04:53;;;;;;;7.70;6.90;;;22.40;90.70;;;;;;7376149;19;20391;-50
2022/07/24 02:07:28;;;;;;;9.67;8.10;;;22.40;90.40;;;;;;7373351;19;20364;-50
2022/07/24 02:09:57;;;;;;;8.20;7.40;;;22.30;90.80;;;;;;7369960;19;21009;-51
2022/07/24 02:12:27;;;;;;;7.90;7.10;;;22.00;91.90;;;;;;7371248;19;20874;-50
2022/07/24 02:14:56;;;;;;;8.70;7.80;;;22.20;91.90;;;;;;7373350;19;20964;-51
2022/07/24 02:17:26;;;;;;;8.13;7.33;;;22.30;91.20;;;;;;7363411;19;20951;-50
2022/07/24 02:19:55;;;;;;;8.63;7.20;;;22.30;90.30;;;;;;7362620;19;20372;-50
2022/07/24 02:22:28;;;;;;;8.60;7.20;;;22.20;90.60;;;;;;7369227;19;20373;-50
2022/07/24 02:24:59;;;;;;;8.57;7.67;;;22.10;90.70;;;;;;7370260;19;20391;-50
2022/07/24 02:27:29;;;;;;;9.80;7.40;;;22.00;91.10;;;;;;7370846;19;20372;-50
2022/07/24 02:29:58;;;;;;;8.10;7.03;;;22.00;91.10;;;;;;7364899;19;20391;-49
2022/07/24 02:32:28;;;;;;;8.10;7.30;;;21.90;91.30;;;;;;7368525;19;20471;-50
2022/07/24 02:34:57;;;;;;;9.73;7.77;;;21.70;92.20;;;;;;7369373;19;21577;-50
2022/07/24 02:37:29;;;;;;;8.27;6.93;;;21.80;92.20;;;;;;7374456;19;20902;-50
2022/07/24 02:39:59;;;;;;;8.10;7.30;;;21.90;91.40;;;;;;7369974;19;20381;-51
2022/07/24 02:42:28;;;;;;;10.10;8.60;;;21.80;91.40;;;;;;7352568;19;20998;-49
2022/07/24 02:44:58;;;;;;;9.40;8.23;;;21.70;91.80;;;;;;7373591;19;20413;-50
2022/07/24 02:47:27;;;;;;;7.90;7.10;;;21.80;92.00;;;;;;7365940;19;20356;-50
2022/07/24 02:49:57;;;;;;;8.53;7.70;;;22.00;91.30;;;;;;7371102;19;20760;-50
2022/07/24 02:52:30;;;;;;;8.07;7.27;;;22.20;90.80;;;;;;7369083;19;20409;-51
2022/07/24 02:55:02;;;;;;;10.50;8.33;;;22.10;90.50;;;;;;7377257;19;20376;-50
2022/07/24 02:57:31;;;;;;;10.20;7.67;;;21.90;91.20;;;;;;7367986;19;20460;-51
2022/07/24 03:00:01;;;;;;;9.27;7.77;;;21.90;91.80;;;;;;7372701;19;20436;-50
2022/07/24 03:02:30;;;;;;;10.83;8.47;;;21.70;92.20;;;;;;7360230;19;20376;-49
2022/07/24 03:05:00;;;;;;;9.60;8.30;;;21.70;92.40;;;;;;7351247;19;20376;-51
2022/07/24 03:07:37;;;;;;;10.60;8.80;;;21.80;92.40;;;;;;7367448;19;20924;-49
2022/07/24 03:10:07;;;;;;;9.33;8.40;;;21.60;93.20;;;;;;7368610;19;20421;-49
2022/07/24 03:12:37;;;;;;;8.93;8.07;;;21.50;93.60;;;;;;7368043;19;20420;-49
2022/07/24 03:15:08;;;;;;;9.50;8.60;;;21.50;93.40;;;;;;7363672;19;20963;-51
2022/07/24 03:17:37;;;;;;;8.57;7.73;;;21.60;93.40;;;;;;7364827;19;20409;-49
2022/07/24 03:20:08;;;;;;;9.03;8.13;;;21.80;92.80;;;;;;7369817;19;20402;-51
2022/07/24 03:22:40;;;;;;;8.40;7.50;;;21.60;92.70;;;;;;7367675;19;21233;-50
2022/07/24 03:25:10;;;;;;;9.30;8.17;;;21.40;93.70;;;;;;7359293;19;20413;-51
2022/07/24 03:27:40;;;;;;;10.53;8.60;;;21.50;93.90;;;;;;7361210;19;20372;-51
2022/07/24 03:30:13;;;;;;;8.27;7.47;;;21.80;93.10;;;;;;7365123;19;20383;-51
2022/07/24 03:32:42;;;;;;;11.70;8.80;;;21.80;92.70;;;;;;7369257;19;21029;-51
2022/07/24 03:35:14;;;;;;;9.07;8.17;;;21.70;92.90;;;;;;7372950;19;20516;-51
2022/07/24 03:37:46;;;;;;;10.00;8.90;;;21.40;94.00;;;;;;7384736;19;20400;-51
2022/07/24 03:40:16;;;;;;;13.93;8.67;;;21.50;94.50;;;;;;7367085;19;20448;-51
2022/07/24 03:42:45;;;;;;;9.53;8.47;;;21.30;94.70;;;;;;7363173;19;20360;-51
2022/07/24 03:45:15;;;;;;;9.37;8.47;;;21.30;94.70;;;;;;7358725;19;20404;-51
2022/07/24 03:47:45;;;;;;;9.70;8.70;;;21.40;94.60;;;;;;7341113;19;22176;-51
2022/07/24 03:50:16;;;;;;;11.27;8.87;;;21.40;94.90;;;;;;7357902;19;20376;-51
2022/07/24 03:52:48;;;;;;;9.53;8.63;;;21.40;94.30;;;;;;7365913;19;20376;-50
2022/07/24 03:55:18;;;;;;;15.27;8.47;;;21.40;94.70;;;;;;7367899;19;20431;-50
2022/07/24 03:57:47;;;;;;;10.00;9.00;;;21.20;94.90;;;;;;7359911;19;20364;-50
2022/07/24 04:00:18;;;;;;;9.80;8.77;;;21.00;95.70;;;;;;7360659;19;20756;-50
2022/07/24 04:02:50;;;;;;;10.30;9.20;;;20.80;97.00;;;;;;7369055;19;20378;-50
2022/07/24 04:05:19;;;;;;;10.13;9.13;;;21.00;96.80;;;;;;7361191;19;20373;-51
2022/07/24 04:07:51;;;;;;;10.47;8.70;;;21.10;96.60;;;;;;7368572;19;20459;-50
2022/07/24 04:10:21;;;;;;;11.00;9.00;;;21.10;97.00;;;;;;7361850;19;20376;-51
2022/07/24 04:12:50;;;;;;;10.40;9.40;;;21.00;97.10;;;;;;7369133;19;20376;-51
2022/07/24 04:15:20;;;;;;;9.50;8.60;;;21.10;97.20;;;;;;7358256;19;20376;-51
2022/07/24 04:17:50;;;;;;;10.73;9.57;;;20.70;98.50;;;;;;7364175;19;20380;-51
2022/07/24 04:20:19;;;;;;;10.60;9.57;;;20.80;98.90;;;;;;7360709;19;20898;-50
2022/07/24 04:22:51;;;;;;;10.00;9.00;;;20.90;98.10;;;;;;7356850;19;20379;-51
2022/07/24 04:25:23;;;;;;;11.07;9.50;;;21.00;98.30;;;;;;7352388;19;20882;-51
2022/07/24 04:27:52;;;;;;;10.10;9.10;;;21.10;98.10;;;;;;7351856;19;20376;-52
2022/07/24 04:30:24;;;;;;;9.87;8.97;;;21.10;98.00;;;;;;7349476;19;21025;-50
2022/07/24 04:32:53;;;;;;;9.57;8.30;;;21.10;97.90;;;;;;7357752;19;20392;-50
2022/07/24 04:35:26;;;;;;;10.03;8.60;;;21.20;97.60;;;;;;7367894;19;20377;-50
2022/07/24 04:37:58;;;;;;;11.37;9.07;;;21.20;97.50;;;;;;7357801;19;20367;-51
2022/07/24 04:40:27;;;;;;;9.80;8.80;;;21.20;97.90;;;;;;7369351;19;20376;-51
2022/07/24 04:42:59;;;;;;;10.33;9.33;;;21.10;98.40;;;;;;7356257;19;20372;-51
2022/07/24 04:45:29;;;;;;;10.60;9.60;;;21.10;98.50;;;;;;7358244;19;20843;-51
2022/07/24 04:47:59;;;;;;;10.60;9.47;;;21.10;98.80;;;;;;7361296;19;20391;-51
2022/07/24 04:50:28;;;;;;;9.80;8.63;;;21.10;98.50;;;;;;7345287;19;20722;-50
2022/07/24 04:53:00;;;;;;;11.23;9.20;;;21.20;98.40;;;;;;7371500;19;20364;-51
2022/07/24 04:55:30;;;;;;;10.90;9.10;;;21.30;98.30;;;;;;7364562;19;20376;-50
2022/07/24 04:57:59;;;;;;;10.07;9.00;;;21.30;98.50;;;;;;7379640;19;20380;-50
2022/07/24 05:00:29;;;;;;;10.60;9.33;;;21.30;98.90;;;;;;7365452;19;21123;-47
2022/07/24 05:02:58;;;;;;;10.10;9.07;;;21.50;98.40;;;;;;7365685;19;20376;-47
2022/07/24 05:05:28;;;;;;;8.80;7.73;;;21.70;97.90;;;;;;7367094;19;20461;-47
2022/07/24 05:08:03;;;;;;;10.93;9.93;;;21.90;97.20;;;;;;7370668;19;20369;-47
2022/07/24 05:10:33;;;;;;;10.80;9.70;;;21.90;96.40;;;;;;7360034;19;20375;-47
2022/07/24 05:13:02;;;;;;;10.50;9.47;;;21.50;97.50;;;;;;7365889;19;20361;-47
2022/07/24 05:15:32;;;;;;;9.57;8.60;;;21.30;98.80;;;;;;7370488;19;20380;-47
2022/07/24 05:18:02;;;;;;;10.70;9.60;;;21.50;98.70;;;;;;7366211;19;21795;-47
2022/07/24 05:20:31;;;;;;;9.77;8.23;;;21.70;98.00;;;;;;7372863;19;20372;-47
2022/07/24 05:23:03;;;;;;;14.03;9.07;;;21.80;97.60;;;;;;7366988;19;20383;-47
2022/07/24 05:25:33;;;;;;;11.00;9.90;;;21.90;97.80;;;;;;7372360;19;20380;-47
2022/07/24 05:28:02;;;;;;;9.57;8.50;;;21.90;97.50;;;;;;7369496;19;20369;-47
2022/07/24 05:30:34;;;;;;;10.60;9.00;;;21.80;97.40;;;;;;7373470;19;20938;-51
2022/07/24 05:33:04;;;;;;;10.77;9.60;;;21.80;97.70;;;;;;7359086;19;20722;-50
2022/07/24 05:35:33;;;;;;;10.20;9.20;;;22.00;97.30;;;;;;7367695;19;20360;-51
2022/07/24 05:38:05;;;;;;;10.87;9.77;;;22.10;96.20;;;;;;7371070;19;20376;-50
2022/07/24 05:40:35;;;;;;;10.67;9.67;;;22.30;96.60;;;;;;7376206;19;20750;-51
2022/07/24 05:43:04;;;;;;;11.80;10.20;;;22.60;95.30;;;;;;7376736;19;20755;-50
2022/07/24 05:45:34;;;;;;;10.87;9.27;;;22.80;94.40;;;;;;7366861;19;20448;-50
2022/07/24 05:48:03;;;;;;;12.60;10.30;;;23.00;93.90;;;;;;7373381;19;20366;-50
2022/07/24 05:50:33;;;;;;;11.40;9.60;;;23.20;92.60;;;;;;7374020;19;20364;-50
2022/07/24 05:53:05;;;;;;;11.37;10.13;;;22.90;93.30;;;;;;7371670;19;20360;-50
2022/07/24 05:55:35;;;;;;;11.50;10.20;;;22.60;94.30;;;;;;7367031;19;20824;-50
2022/07/24 05:58:04;;;;;;;12.40;10.10;;;22.40;94.70;;;;;;7360681;19;20375;-50
2022/07/24 06:00:34;;;;;;;9.83;8.80;;;22.50;94.80;;;;;;7367772;19;20532;-50
2022/07/24 06:03:03;;;;;;;9.83;8.93;;;22.80;94.20;;;;;;7366598;19;20380;-50
2022/07/24 06:05:33;;;;;;;10.53;9.50;;;23.20;92.70;;;;;;7375409;19;20388;-50
2022/07/24 06:08:05;;;;;;;10.03;9.07;;;23.40;92.40;;;;;;7372831;19;20383;-50
2022/07/24 06:10:35;;;;;;;10.67;9.57;;;23.50;91.30;;;;;;7373545;19;20368;-50
2022/07/24 06:13:05;;;;;;;10.13;9.20;;;23.50;91.70;;;;;;7370079;19;20380;-50
2022/07/24 06:15:34;;;;;;;11.37;10.20;;;23.70;91.30;;;;;;7368138;19;20383;-51
2022/07/24 06:18:04;;;;;;;10.77;9.47;;;23.90;90.10;;;;;;7367720;19;20419;-50
2022/07/24 06:20:36;;;;;;;9.73;8.73;;;24.20;87.50;;;;;;7365016;19;20396;-51
2022/07/24 06:23:08;;;;;;;9.90;9.00;;;24.40;85.70;;;;;;7373845;19;20412;-50
2022/07/24 06:25:37;;;;;;;9.03;8.23;;;24.60;84.20;;;;;;7370491;19;21081;-49
2022/07/24 06:28:11;;;;;;;10.13;8.93;;;24.80;82.50;;;;;;7369035;19;20988;-50
2022/07/24 06:30:41;;;;;;;10.50;9.00;;;25.00;81.00;;;;;;7362102;19;20368;-50
2022/07/24 06:33:11;;;;;;;9.60;8.60;;;25.00;78.20;;;;;;7360265;19;20376;-50
2022/07/24 06:35:40;;;;;;;9.60;8.60;;;25.10;78.20;;;;;;7364258;19;20376;-50
2022/07/24 06:38:16;;;;;;;10.07;9.07;;;25.30;77.20;;;;;;7357294;19;20372;-50
2022/07/24 06:40:47;;;;;;;10.93;9.40;;;25.30;76.40;;;;;;7365656;19;20379;-49
2022/07/24 06:43:17;;;;;;;11.37;9.70;;;25.30;74.90;;;;;;7369550;19;20400;-49
2022/07/24 06:45:46;;;;;;;11.83;9.90;;;25.10;75.70;;;;;;7359530;19;20773;-49
2022/07/24 06:48:16;;;;;;;10.10;9.10;;;24.90;75.60;;;;;;7370350;19;20836;-49
2022/07/24 06:50:48;;;;;;;9.33;8.43;;;24.80;76.10;;;;;;7363167;19;20372;-49
2022/07/24 06:53:20;;;;;;;11.60;9.33;;;24.90;76.60;;;;;;7369005;19;20409;-50
2022/07/24 06:55:53;;;;;;;10.10;9.10;;;25.20;75.30;;;;;;7367223;19;20387;-51
2022/07/24 06:58:22;;;;;;;10.00;9.00;;;25.50;73.80;;;;;;7366153;19;21117;-50
2022/07/24 07:00:52;;;;;;;9.73;8.93;;;25.70;72.70;;;;;;7365102;19;20428;-50
2022/07/24 07:03:22;;;;;;;9.53;8.53;;;25.80;72.00;;;;;;7374042;19;20720;-50
2022/07/24 07:05:51;;;;;;;10.33;9.43;;;25.90;70.50;;;;;;7371432;19;20426;-50
2022/07/24 07:08:23;;;;;;;8.83;7.93;;;26.00;71.30;;;;;;7360239;19;20973;-49
2022/07/24 07:10:53;;;;;;;10.40;9.33;;;26.10;70.10;;;;;;7370359;19;20420;-50
2022/07/24 07:13:23;;;;;;;9.53;8.70;;;26.20;70.90;;;;;;7357953;19;20425;-50
2022/07/24 07:15:53;;;;;;;11.90;10.60;;;26.30;69.70;;;;;;7372702;19;20911;-50
2022/07/24 07:18:22;;;;;;;10.07;9.07;;;26.40;73.10;;;;;;7369761;19;20898;-49
2022/07/24 07:20:53;;;;;;;12.33;10.57;;;26.50;70.10;;;;;;7368360;19;21151;-50
2022/07/24 07:23:27;;;;;;;10.33;9.23;;;26.60;73.10;;;;;;7360917;19;20376;-50
2022/07/24 07:25:57;;;;;;;11.83;10.63;;;26.70;69.30;;;;;;7368719;19;21088;-50
2022/07/24 07:28:28;;;;;;;10.30;9.30;;;26.70;71.90;;;;;;7364817;19;20372;-50
2022/07/24 07:30:58;;;;;;;10.70;9.60;;;26.80;70.00;;;;;;7362097;19;20387;-50
2022/07/24 07:33:28;;;;;;;10.80;9.80;;;26.90;69.30;;;;;;7363109;19;20376;-49
2022/07/24 07:35:58;;;;;;;11.40;10.30;;;26.90;69.30;;;;;;7363280;19;20459;-50
2022/07/24 07:38:30;;;;;;;10.77;9.67;;;27.10;70.40;;;;;;7363892;19;20371;-51
2022/07/24 07:41:00;;;;;;;10.47;9.40;;;27.10;70.30;;;;;;7364933;19;20424;-50
2022/07/24 07:43:29;;;;;;;11.80;10.50;;;27.20;69.10;;;;;;7370591;19;20380;-49
2022/07/24 07:45:59;;;;;;;9.80;8.90;;;27.20;69.40;;;;;;7363696;19;20367;-50
2022/07/24 07:48:30;;;;;;;10.83;9.80;;;27.30;68.80;;;;;;7368020;19;20741;-50
2022/07/24 07:50:59;;;;;;;11.57;9.10;;;27.40;68.30;;;;;;7359755;19;20443;-50
2022/07/24 07:53:31;;;;;;;11.17;10.07;;;27.50;67.20;;;;;;7362659;19;20387;-50
2022/07/24 07:56:02;;;;;;;11.37;10.20;;;27.60;66.80;;;;;;7366750;19;20372;-50
2022/07/24 07:58:31;;;;;;;11.13;10.03;;;27.60;66.10;;;;;;7361791;19;20372;-50
2022/07/24 08:01:03;;;;;;;10.73;9.83;;;27.60;66.30;;;;;;7360233;19;20736;-50
2022/07/24 08:03:32;;;;;;;12.00;9.90;;;27.70;65.40;;;;;;7361169;19;20372;-50
2022/07/24 08:06:03;;;;;;;10.37;9.37;;;27.80;64.20;;;;;;7370213;19;21089;-50
2022/07/24 08:08:36;;;;;;;11.37;9.17;;;27.90;64.60;;;;;;7365402;19;20771;-50
2022/07/24 08:11:07;;;;;;;9.93;8.93;;;28.00;64.00;;;;;;7369371;19;20451;-48
2022/07/24 08:13:37;;;;;;;9.83;8.83;;;28.10;63.80;;;;;;7362100;19;22459;-48
2022/07/24 08:16:07;;;;;;;10.07;9.07;;;28.10;61.00;;;;;;7370383;19;20968;-48
2022/07/24 08:18:37;;;;;;;8.50;7.73;;;28.10;59.90;;;;;;7362553;19;20491;-48
2022/07/24 08:21:08;;;;;;;11.73;9.10;;;28.30;60.00;;;;;;7364343;19;20391;-48
2022/07/24 08:23:41;;;;;;;9.17;8.27;;;28.30;59.50;;;;;;7363442;19;21002;-48
2022/07/24 08:26:12;;;;;;;9.40;8.37;;;28.40;59.30;;;;;;7360984;19;20441;-48
2022/07/24 08:28:42;;;;;;;9.73;8.47;;;28.30;59.10;;;;;;7369042;19;20394;-48
2022/07/24 08:31:13;;;;;;;8.90;8.10;;;28.40;58.30;;;;;;7361793;19;20434;-48
2022/07/24 08:33:42;;;;;;;8.50;7.60;;;28.40;58.20;;;;;;7363784;19;20797;-48
2022/07/24 08:36:12;;;;;;;8.63;7.83;;;28.40;58.40;;;;;;7363945;19;20425;-48
2022/07/24 08:38:44;;;;;;;9.43;8.53;;;28.40;58.30;;;;;;7364722;19;20391;-49
2022/07/24 08:41:14;;;;;;;10.77;9.30;;;28.60;58.20;;;;;;7362104;19;20363;-48
2022/07/24 08:43:44;;;;;;;9.70;8.80;;;28.80;57.50;;;;;;7361915;19;20383;-48
2022/07/24 08:46:16;;;;;;;9.27;8.10;;;28.90;56.50;;;;;;7365965;19;21158;-48
2022/07/24 08:48:47;;;;;;;9.40;8.10;;;29.00;56.70;;;;;;7362910;19;20379;-48
2022/07/24 08:51:17;;;;;;;8.73;7.93;;;29.20;55.60;;;;;;7369279;19;20376;-48
2022/07/24 08:53:49;;;;;;;9.10;8.20;;;29.10;55.20;;;;;;7357588;19;20816;-48
2022/07/24 08:56:19;;;;;;;8.53;7.73;;;29.30;55.10;;;;;;7368099;19;20419;-48
2022/07/24 08:58:51;;;;;;;8.40;7.53;;;29.40;54.60;;;;;;7357868;19;20722;-48
2022/07/24 09:01:23;;;;;;;8.30;7.50;;;29.50;54.00;;;;;;7364052;19;20428;-48
2022/07/24 09:03:52;;;;;;;8.63;7.90;;;29.60;54.20;;;;;;7360950;19;20984;-48
2022/07/24 09:06:22;;;;;;;9.43;8.40;;;29.70;53.50;;;;;;7367994;19;21017;-48
2022/07/24 09:09:03;;;;;;;8.73;7.93;;;29.70;53.20;;;;;;7374607;19;20376;-48
2022/07/24 09:11:33;;;;;;;8.13;7.33;;;29.80;53.30;;;;;;7366827;19;20376;-48
2022/07/24 09:16:48;;;;;;;9.77;7.87;;;30.00;52.30;;;;;;7385274;19;20372;-48
2022/07/24 09:19:17;;;;;;;7.90;7.10;;;30.30;51.70;;;;;;7381204;19;20403;-47
2022/07/24 09:21:49;;;;;;;9.23;8.10;;;30.50;51.00;;;;;;7366618;19;20364;-48
2022/07/24 09:24:23;;;;;;;7.83;7.00;;;30.50;51.10;;;;;;7375318;19;20364;-48
2022/07/24 09:26:55;;;;;;;7.83;7.00;;;30.70;51.00;;;;;;7361003;19;20471;-48
2022/07/24 09:29:28;;;;;;;8.87;8.07;;;30.80;50.40;;;;;;7369168;19;20369;-48
2022/07/24 09:32:00;;;;;;;8.20;7.40;;;30.90;49.40;;;;;;7368576;19;20726;-48
2022/07/24 09:34:32;;;;;;;8.50;7.80;;;31.00;49.70;;;;;;7371942;19;20964;-48
2022/07/24 09:37:04;;;;;;;7.10;6.40;;;31.00;48.90;;;;;;7370032;19;20371;-48
2022/07/24 09:39:39;;;;;;;8.83;7.83;;;31.00;49.00;;;;;;7365750;19;20364;-49
2022/07/24 09:42:10;;;;;;;7.93;7.20;;;30.80;49.70;;;;;;7366039;19;20767;-49
2022/07/24 09:44:40;;;;;;;7.73;6.90;;;30.60;49.90;;;;;;7363810;19;20373;-48
2022/07/24 09:47:11;;;;;;;7.97;7.17;;;30.50;50.20;;;;;;7370976;19;20376;-48
2022/07/24 09:49:42;;;;;;;8.97;8.03;;;30.40;50.10;;;;;;7361400;19;20385;-51
2022/07/24 09:52:15;;;;;;;8.80;7.43;;;30.40;50.20;;;;;;7372656;19;20380;-52
2022/07/24 09:54:51;;;;;;;7.90;7.17;;;30.40;50.00;;;;;;7360169;19;20399;-51
2022/07/24 09:57:24;;;;;;;8.23;6.93;;;30.40;50.20;;;;;;7367678;19;20953;-51
2022/07/24 09:59:58;;;;;;;8.40;7.57;;;30.40;50.40;;;;;;7353499;19;20448;-52
2022/07/24 10:02:29;;;;;;;8.10;7.30;;;30.20;50.30;;;;;;7371518;19;20439;-51
2022/07/24 10:05:00;;;;;;;8.70;7.90;;;30.10;50.10;;;;;;7363789;19;20365;-51
2022/07/24 10:07:31;;;;;;;8.80;7.93;;;30.00;50.00;;;;;;7368925;19;20388;-51
2022/07/24 10:10:03;;;;;;;14.23;7.30;;;30.00;50.00;;;;;;7364297;19;20400;-51
2022/07/24 10:12:34;;;;;;;8.23;7.43;;;29.60;50.50;;;;;;7365870;19;20376;-52
2022/07/24 10:15:05;;;;;;;8.00;7.20;;;29.60;50.10;;;;;;7364471;19;20368;-52
2022/07/24 10:17:53;;;;;;;8.33;7.53;;;29.40;50.70;;;;;;7371813;19;20898;-51
2022/07/24 10:20:39;;;;;;;8.50;7.70;;;29.40;50.80;;;;;;7362030;19;20372;-48
2022/07/24 10:23:09;;;;;;;9.00;7.90;;;29.50;51.40;;;;;;7364821;19;21099;-48
2022/07/24 10:25:56;;;;;;;8.30;7.47;;;29.40;51.50;;;;;;7359313;19;20427;-48
2022/07/24 10:28:39;;;;;;;8.10;7.30;;;29.50;51.70;;;;;;7361214;19;20407;-48
2022/07/24 10:31:11;;;;;;;8.87;7.40;;;29.80;51.40;;;;;;7356570;19;21684;-48
2022/07/24 10:33:42;;;;;;;7.73;7.03;;;30.30;50.40;;;;;;7362840;19;20384;-48
2022/07/24 10:36:24;;;;;;;7.93;7.13;;;30.80;49.30;;;;;;7364189;19;20419;-48
2022/07/24 10:39:15;;;;;;;7.27;6.67;;;31.00;48.60;;;;;;7357533;19;20969;-48
2022/07/24 10:42:02;;;;;;;8.00;7.30;;;31.30;47.50;;;;;;7356679;19;20416;-48
2022/07/24 10:44:32;;;;;;;8.17;7.33;;;31.40;47.40;;;;;;7349281;19;20380;-48
2022/07/24 10:47:07;;;;;;;7.80;7.17;;;31.60;47.00;;;;;;7364475;19;20420;-49
2022/07/24 10:49:48;;;;;;;9.53;8.00;;;32.20;46.40;;;;;;7346542;19;20765;-51
2022/07/24 10:52:32;;;;;;;7.97;7.23;;;32.60;45.30;;;;;;7357019;19;20919;-51
2022/07/24 10:55:23;;;;;;;8.40;7.60;;;32.90;44.80;;;;;;7358415;19;20365;-51
2022/07/24 10:58:02;;;;;;;6.93;6.23;;;32.80;44.50;;;;;;7349403;19;20369;-51
2022/07/24 11:00:34;;;;;;;7.87;7.17;;;32.90;44.40;;;;;;7359302;19;20423;-51
2022/07/24 11:03:05;;;;;;;7.77;6.97;;;33.10;43.90;;;;;;7351787;19;20368;-51
2022/07/24 11:05:37;;;;;;;9.03;7.63;;;33.10;43.50;;;;;;7350276;19;20376;-51
2022/07/24 11:08:31;;;;;;;9.13;8.20;;;33.00;43.10;;;;;;7351631;19;20376;-51
2022/07/24 11:11:07;;;;;;;8.20;7.40;;;32.90;43.60;;;;;;7351909;19;20416;-51
2022/07/24 11:13:51;;;;;;;8.13;7.33;;;32.90;44.00;;;;;;7346193;19;20376;-51
2022/07/24 11:16:26;;;;;;;9.77;7.70;;;33.00;43.10;;;;;;7351553;19;20379;-51
2022/07/24 11:19:25;;;;;;;8.80;7.80;;;33.10;43.40;;;;;;7357383;19;20387;-51
2022/07/24 11:22:21;;;;;;;7.47;6.77;;;33.30;42.60;;;;;;7354034;19;20429;-51
2022/07/24 11:25:09;;;;;;;9.10;7.00;;;33.50;42.90;;;;;;7355080;19;20474;-51
2022/07/24 11:27:46;;;;;;;7.87;7.13;;;33.40;43.10;;;;;;7350828;19;20404;-51
2022/07/24 11:30:22;;;;;;;7.40;6.80;;;33.20;42.90;;;;;;7362465;19;20441;-48
2022/07/24 11:32:57;;;;;;;9.07;8.17;;;33.30;43.20;;;;;;7359278;19;20356;-48
2022/07/24 11:35:34;;;;;;;13.40;8.67;;;33.30;43.70;;;;;;7341491;19;20495;-48
2022/07/24 11:38:06;;;;;;;9.60;7.30;;;33.20;43.30;;;;;;7352149;19;20383;-48
2022/07/24 11:40:37;;;;;;;11.63;8.70;;;33.20;42.50;;;;;;7353209;19;20464;-48
2022/07/24 11:43:10;;;;;;;11.20;8.37;;;32.80;43.40;;;;;;7362085;19;20925;-48
2022/07/24 11:45:54;;;;;;;8.77;7.90;;;32.70;44.40;;;;;;7352174;19;20730;-48
2022/07/24 11:48:24;;;;;;;10.60;7.80;;;32.20;43.00;;;;;;7360203;19;20379;-48
2022/07/24 11:51:06;;;;;;;17.37;10.87;;;31.80;44.00;;;;;;7357050;19;20383;-48
2022/07/24 11:53:36;;;;;;;13.60;9.57;;;31.80;46.00;;;;;;7354430;19;20368;-48
2022/07/24 11:56:06;;;;;;;12.30;9.37;;;31.70;45.80;;;;;;7355046;19;20385;-48
2022/07/24 11:58:40;;;;;;;9.63;7.90;;;31.90;45.90;;;;;;7361975;19;20957;-48
2022/07/24 12:01:25;;;;;;;15.13;10.63;;;32.00;44.40;;;;;;7354421;19;20443;-51
2022/07/24 12:03:55;;;;;;;15.20;9.60;;;32.20;46.40;;;;;;7344382;19;20372;-52
2022/07/24 12:06:25;;;;;;;14.57;10.40;;;32.30;45.70;;;;;;7361024;19;20376;-51
2022/07/24 12:08:59;;;;;;;14.17;10.17;;;32.40;45.80;;;;;;7355178;19;20375;-51
2022/07/24 12:11:31;;;;;;;17.43;9.80;;;32.40;44.70;;;;;;7362240;19;20945;-51
2022/07/24 12:14:01;;;;;;;11.00;8.10;;;32.50;45.70;;;;;;7353992;19;20383;-51
2022/07/24 12:16:33;;;;;;;7.40;6.70;;;32.50;45.50;;;;;;7355840;19;20817;-51
2022/07/24 12:19:22;;;;;;;14.33;8.27;;;32.50;43.30;;;;;;7352079;19;20393;-51
2022/07/24 12:21:53;;;;;;;8.77;8.00;;;32.80;44.90;;;;;;7359483;19;20388;-51
2022/07/24 12:24:26;;;;;;;11.20;8.93;;;32.70;42.30;;;;;;7358951;19;20988;-51
2022/07/24 12:26:56;;;;;;;14.40;9.30;;;32.70;44.60;;;;;;7357299;19;20821;-51
2022/07/24 12:29:30;;;;;;;13.13;9.70;;;32.90;44.50;;;;;;7350835;19;20812;-48
2022/07/24 12:32:20;;;;;;;8.40;7.70;;;33.00;44.60;;;;;;7362527;19;20449;-48
2022/07/24 12:34:51;;;;;;;8.10;7.07;;;33.00;41.90;;;;;;7351483;19;21020;-48
2022/07/24 12:37:22;;;;;;;13.37;7.80;;;32.90;41.80;;;;;;7356527;19;20892;-48
2022/07/24 12:39:52;;;;;;;8.33;7.30;;;32.90;43.80;;;;;;7350086;19;20384;-48
2022/07/24 12:42:32;;;;;;;10.53;8.03;;;33.00;42.60;;;;;;7355800;19;20371;-48
2022/07/24 12:45:11;;;;;;;9.93;7.73;;;33.20;44.30;;;;;;7352278;19;20411;-48
2022/07/24 12:48:23;;;;;;;9.63;7.40;;;33.10;43.90;;;;;;7350746;19;20952;-48
2022/07/24 12:51:09;;;;;;;11.70;7.70;;;33.10;44.00;;;;;;7361620;19;20429;-48
2022/07/24 12:53:40;;;;;;;7.87;7.00;;;33.20;44.00;;;;;;7360000;19;20443;-48
2022/07/24 12:56:16;;;;;;;9.20;8.30;;;33.20;42.70;;;;;;7355036;19;20388;-52
2022/07/24 12:59:01;;;;;;;9.17;6.83;;;33.30;43.80;;;;;;7360193;19;20368;-48
2022/07/24 13:01:48;;;;;;;8.17;7.47;;;33.30;42.20;;;;;;7360363;19;20442;-51
2022/07/24 13:04:20;;;;;;;7.60;6.90;;;33.10;41.50;;;;;;7365048;19;20455;-51
2022/07/24 13:06:56;;;;;;;8.60;7.80;;;32.90;40.70;;;;;;7364499;19;20379;-52
2022/07/24 13:09:27;;;;;;;9.30;7.83;;;32.80;41.80;;;;;;7363641;19;20359;-53